Lodz Lublinek Airport Lodz Lublinek PL
ICAO: EPLL
IATA: LCJ
Category: Medium
Scheduled Services: Yes

Elevation: 604 ft
TransAlt. 6562 ft.

Airport Communications:
INFO:122.7
TWR:124.225

EPLL Zoom In..

Runways:

(A) RW 07 length 8202 ft width 148 ft
---- / hdg 66

(B) RW 25 length 8202 ft width 148 ft
ILS 110.50 / hdg 246

Location; EPLL
Day. 05 / Time. 16.00 Zulu
* QNH: 1011
* Temperature: 27° c. 80.6°f.
* Wind from: 230° Speed 12 kn.
Dewpoint: 16° c.
Visibility: 10 km or more,
No clouds below 1,500 m.
No cumulonimbus, and no significant weather
fenomena in the aerodrome or its vicinity.

EPLL 051600Z 23012KT CAVOK 27/16 Q1011

Going to: --> -->


Wind From 230°
Speed 12 kn.

 
 
jpsmedia worldairports.se 2020   terms of use